Pagina principale
METAR-TAF:

METAR-TAF

Aeroporti :

Figari, Francia

Aeroporto di Figari Corsica del Sud

latitudine: 41-30N, longitudine: 009-06E, altezza: 26 m

Osservazione

Il bollettino è stato emesso 36 minuti fa, alle 09:00 UTC
Vento 9 kt da sud-ovest
Temperature 29°C
Umidità 37%
Pressione 1017 hPa
Visibilità 10 km o più
nessuna nube inferiore a 1500 m e nessun cumulonembo

METAR: LFKF 290900Z AUTO 22009KT CAVOK 29/13 Q1017 BECMG 13010KT

Ora: 11:36 (09:36 UTC)

Previsione

Il bollettino è stato emesso 1 ora e 36 minuti fa, alle 08:00 UTC
Previsione valida dal 29 alle 09 UTC al 30 alle 09 UTC
Vento 10 kt da sud-est
Visibilità 10 km o più
nessuna nube inferiore a 1500 m e nessun cumulonembo
Evoluzione graduale
dal 29 alle 16 UTC al 29 alle 18 UTC
Vento 5 kt da est/nord-est

TAF: LFKF 290800Z 2909/3009 13010KT CAVOK BECMG 2916/2918 06005KT

Osservazioni e previsioni meteorologiche di più di 4000 aeroporti (messaggi METAR e TAF).

Le stazioni disponibili sono rappresentate dai dischi gialli e rossi sulla carta.

Puntare il mouse per vedere il nome della stazione.

Clicca sopra per visualizzare le osservazioni e previsioni meteorologiche.

Per cambiare la mappa : fare clic sui pulsanti verdi con una croce nera per ingrandire, il pulsante verde con un trattino per diminuire, o sulla freccia verde per le mappe adiacenti.


METAR-TAF: